createdAt,value
2022-10-15T00:02:57.539Z,9.53
2022-10-15T00:06:02.419Z,8.28
2022-10-15T00:09:09.763Z,8.63
2022-10-15T00:12:16.422Z,8.75
2022-10-15T00:15:25.410Z,8.85
2022-10-15T00:18:31.645Z,8.68
2022-10-15T00:21:38.048Z,9.58
2022-10-15T00:24:45.362Z,9.55
2022-10-15T00:27:52.285Z,9.23
2022-10-15T00:30:59.371Z,8.65
2022-10-15T00:34:05.928Z,9.03
2022-10-15T00:37:14.499Z,9.40
2022-10-15T00:40:22.420Z,8.13
2022-10-15T00:43:27.269Z,8.68
2022-10-15T00:46:41.842Z,8.93
2022-10-15T00:49:52.684Z,8.43
2022-10-15T00:53:16.927Z,8.45
2022-10-15T00:56:22.357Z,8.23
2022-10-15T00:59:30.545Z,8.65
2022-10-15T01:02:36.403Z,8.15
2022-10-15T01:05:42.514Z,8.73
2022-10-15T01:08:49.657Z,8.55
2022-10-15T01:12:04.574Z,8.95
2022-10-15T01:15:34.577Z,9.38
2022-10-15T01:18:59.340Z,8.73
2022-10-15T01:22:17.000Z,9.20
2022-10-15T01:26:02.137Z,8.50
2022-10-15T01:29:30.237Z,7.95
2022-10-15T01:32:42.844Z,8.00
2022-10-15T01:36:06.395Z,7.72
2022-10-15T01:39:37.276Z,8.08
2022-10-15T01:42:50.242Z,8.00
2022-10-15T01:46:05.880Z,8.55
2022-10-15T01:49:19.729Z,7.08
2022-10-15T01:52:28.800Z,7.25
2022-10-15T01:55:35.348Z,7.35
2022-10-15T01:58:41.885Z,7.67
2022-10-15T02:01:48.859Z,6.50
2022-10-15T02:04:54.732Z,6.50
2022-10-15T02:08:08.347Z,7.10
2022-10-15T02:14:33.719Z,6.75
2022-10-15T02:17:50.423Z,6.60
2022-10-15T02:21:11.098Z,7.53
2022-10-15T02:24:27.543Z,6.37
2022-10-15T02:27:36.190Z,6.95
2022-10-15T02:30:41.271Z,7.37
2022-10-15T02:33:47.477Z,7.17
2022-10-15T02:36:55.248Z,8.45
2022-10-15T02:40:01.604Z,8.33
2022-10-15T02:43:07.637Z,7.85
2022-10-15T02:46:14.358Z,8.18
2022-10-15T02:49:20.262Z,8.33
2022-10-15T02:52:27.557Z,7.33
2022-10-15T02:55:32.876Z,7.83
2022-10-15T02:58:38.726Z,7.90
2022-10-15T03:01:43.796Z,7.70
2022-10-15T03:04:50.362Z,9.48
2022-10-15T03:07:50.876Z,9.08
2022-10-15T03:10:47.420Z,9.30
2022-10-15T03:13:53.669Z,10.13
2022-10-15T03:17:02.051Z,9.58
2022-10-15T03:20:07.586Z,10.03
2022-10-15T03:26:28.209Z,9.38
2022-10-15T03:29:35.608Z,9.05
2022-10-15T03:35:50.671Z,8.65
2022-10-15T03:38:56.719Z,8.53
2022-10-15T03:42:01.999Z,8.60
2022-10-15T03:45:09.586Z,8.68
2022-10-15T03:48:17.181Z,10.78
2022-10-15T03:51:25.574Z,11.35
2022-10-15T03:54:33.622Z,9.73
2022-10-15T03:57:39.833Z,9.18
2022-10-15T04:00:45.563Z,8.90
2022-10-15T04:03:52.504Z,10.10
2022-10-15T04:06:59.686Z,9.35
2022-10-15T04:10:07.220Z,9.03
2022-10-15T04:13:14.108Z,9.13
2022-10-15T04:16:21.005Z,8.83
2022-10-15T04:19:28.033Z,8.90
2022-10-15T04:22:35.419Z,8.45
2022-10-15T04:25:41.689Z,8.93
2022-10-15T04:28:47.850Z,8.90
2022-10-15T04:31:54.608Z,9.10
2022-10-15T04:35:01.562Z,9.03
2022-10-15T04:38:25.508Z,9.85
2022-10-15T04:41:33.754Z,10.58
2022-10-15T04:44:43.746Z,9.95
2022-10-15T04:47:50.885Z,9.65
2022-10-15T04:50:57.225Z,9.28
2022-10-15T04:54:05.059Z,9.43
2022-10-15T04:57:12.969Z,10.18
2022-10-15T05:00:19.719Z,9.50
2022-10-15T05:03:35.606Z,9.73
2022-10-15T05:06:40.984Z,9.93
2022-10-15T05:09:49.265Z,8.83
2022-10-15T05:12:56.898Z,8.33
2022-10-15T05:16:07.270Z,7.87
2022-10-15T05:19:15.875Z,8.35
2022-10-15T05:22:22.841Z,8.78
2022-10-15T05:25:33.594Z,8.03
2022-10-15T05:28:39.510Z,7.30
2022-10-15T05:31:47.995Z,7.22
2022-10-15T05:34:56.179Z,7.60
2022-10-15T05:38:05.238Z,7.75
2022-10-15T05:41:13.497Z,7.78
2022-10-15T05:44:20.001Z,8.23
2022-10-15T05:47:28.619Z,8.18
2022-10-15T05:50:44.715Z,6.90
2022-10-15T05:53:52.798Z,9.40
2022-10-15T05:57:00.603Z,7.12
2022-10-15T06:00:16.027Z,6.83
2022-10-15T06:03:31.041Z,6.62
2022-10-15T06:06:39.201Z,6.22
2022-10-15T06:09:46.277Z,5.92
2022-10-15T06:12:54.376Z,6.30
2022-10-15T06:16:01.476Z,6.92
2022-10-15T06:19:08.545Z,6.15
2022-10-15T06:22:15.341Z,5.70
2022-10-15T06:25:22.971Z,5.80
2022-10-15T06:28:28.138Z,6.60
2022-10-15T06:31:32.898Z,5.80
2022-10-15T06:34:38.126Z,5.30
2022-10-15T06:37:47.006Z,5.22
2022-10-15T06:40:53.315Z,5.70
2022-10-15T06:43:59.383Z,5.65
2022-10-15T06:47:06.341Z,5.05
2022-10-15T06:50:14.467Z,4.83
2022-10-15T06:53:20.801Z,5.05
2022-10-15T06:56:25.840Z,5.05
2022-10-15T06:59:31.786Z,4.90
2022-10-15T07:02:38.613Z,4.40
2022-10-15T07:05:45.496Z,4.58
2022-10-15T07:08:52.469Z,4.95
2022-10-15T07:12:00.039Z,4.53
2022-10-15T07:15:07.639Z,4.67
2022-10-15T07:18:13.874Z,4.62
2022-10-15T07:21:20.305Z,4.12
2022-10-15T07:24:26.884Z,4.30
2022-10-15T07:27:32.491Z,4.22
2022-10-15T07:30:38.824Z,4.22
2022-10-15T07:33:45.114Z,4.12
2022-10-15T07:36:53.389Z,3.47
2022-10-15T07:40:00.216Z,4.12
2022-10-15T07:43:10.122Z,4.00
2022-10-15T07:46:15.243Z,3.45
2022-10-15T07:49:23.278Z,3.95
2022-10-15T07:52:32.642Z,3.62
2022-10-15T07:55:38.420Z,3.08
2022-10-15T07:58:44.929Z,2.87
2022-10-15T08:01:51.656Z,3.30
2022-10-15T08:04:58.299Z,3.00
2022-10-15T08:08:04.381Z,3.42
2022-10-15T08:11:12.423Z,2.77
2022-10-15T08:14:18.357Z,2.65
2022-10-15T08:17:26.644Z,2.87
2022-10-15T08:20:32.522Z,2.50
2022-10-15T08:23:40.004Z,2.33
2022-10-15T08:26:46.509Z,2.55
2022-10-15T08:29:53.833Z,2.25
2022-10-15T08:32:59.584Z,2.50
2022-10-15T08:36:06.923Z,2.25
2022-10-15T08:39:14.640Z,2.10
2022-10-15T08:42:38.535Z,2.37
2022-10-15T08:45:51.824Z,2.40
2022-10-15T08:49:03.637Z,2.47
2022-10-15T08:52:11.552Z,2.10
2022-10-15T08:55:21.066Z,2.35
2022-10-15T08:58:55.470Z,2.30
2022-10-15T09:02:01.558Z,2.05
2022-10-15T09:05:17.199Z,1.90
2022-10-15T09:08:33.774Z,1.98
2022-10-15T09:12:17.808Z,2.15
2022-10-15T09:15:28.203Z,2.20
2022-10-15T09:18:39.955Z,2.27
2022-10-15T09:21:46.428Z,2.17
2022-10-15T09:24:53.433Z,2.67
2022-10-15T09:28:03.575Z,2.27
2022-10-15T09:31:11.959Z,2.35
2022-10-15T09:34:30.241Z,2.05
2022-10-15T09:37:49.957Z,2.30
2022-10-15T09:41:31.953Z,1.80
2022-10-15T09:44:39.321Z,1.92
2022-10-15T09:47:49.427Z,2.10
2022-10-15T09:50:58.279Z,2.35
2022-10-15T09:54:25.672Z,1.80
2022-10-15T09:57:31.111Z,2.12
2022-10-15T10:00:41.506Z,2.37
2022-10-15T10:03:51.828Z,2.58
2022-10-15T10:07:08.798Z,2.20
2022-10-15T10:10:20.907Z,2.75
2022-10-15T10:13:48.468Z,2.50
2022-10-15T10:16:54.056Z,2.25
2022-10-15T10:20:21.835Z,2.45
2022-10-15T10:23:38.938Z,2.10
2022-10-15T10:26:43.886Z,2.70
2022-10-15T10:29:53.823Z,2.47
2022-10-15T10:33:02.464Z,2.35
2022-10-15T10:39:31.673Z,2.58
2022-10-15T10:42:48.706Z,2.20
2022-10-15T10:46:09.676Z,2.40
2022-10-15T10:49:17.631Z,2.65
2022-10-15T10:52:50.922Z,2.62
2022-10-15T10:55:59.316Z,2.40
2022-10-15T10:59:27.363Z,2.45
2022-10-15T11:02:34.132Z,2.33
2022-10-15T11:05:48.962Z,2.30
2022-10-15T11:09:35.322Z,2.62
2022-10-15T11:13:02.997Z,2.80
2022-10-15T11:16:38.871Z,2.92
2022-10-15T11:20:21.743Z,2.62
2022-10-15T11:23:19.877Z,3.12
2022-10-15T11:27:17.518Z,2.70
2022-10-15T11:30:46.407Z,2.60
2022-10-15T11:34:10.267Z,2.83
2022-10-15T11:37:50.380Z,2.80
2022-10-15T11:41:28.788Z,3.05
2022-10-15T11:45:01.051Z,2.77
2022-10-15T11:48:36.113Z,2.80
2022-10-15T11:52:19.232Z,3.33
2022-10-15T11:56:17.925Z,2.80
2022-10-15T11:59:32.432Z,2.60
2022-10-15T12:02:51.542Z,2.77
2022-10-15T12:06:18.483Z,2.75
2022-10-15T12:09:28.506Z,2.60
2022-10-15T12:12:54.800Z,2.50
2022-10-15T12:16:18.825Z,2.05
2022-10-15T12:19:43.760Z,2.52
2022-10-15T12:22:54.404Z,2.00
2022-10-15T12:26:00.018Z,2.02
2022-10-15T12:29:11.512Z,2.47
2022-10-15T12:32:18.275Z,3.00
2022-10-15T12:35:33.293Z,2.65
2022-10-15T12:38:47.705Z,2.22
2022-10-15T12:41:58.590Z,2.80
2022-10-15T12:45:05.035Z,3.02
2022-10-15T12:48:25.353Z,2.92
2022-10-15T12:51:39.866Z,3.10
2022-10-15T12:54:59.029Z,2.50
2022-10-15T12:58:11.003Z,2.55
2022-10-15T13:01:31.692Z,2.92
2022-10-15T13:04:37.588Z,2.60
2022-10-15T13:07:44.818Z,2.70
2022-10-15T13:10:56.109Z,2.30
2022-10-15T13:14:03.243Z,3.08
2022-10-15T13:17:11.527Z,2.30
2022-10-15T13:20:23.499Z,2.30
2022-10-15T13:23:37.776Z,1.98
2022-10-15T13:26:42.945Z,2.22
2022-10-15T13:29:48.897Z,2.02
2022-10-15T13:33:04.079Z,1.90
2022-10-15T13:36:09.049Z,2.10
2022-10-15T13:39:21.251Z,2.55
2022-10-15T13:45:39.066Z,1.90
2022-10-15T13:48:48.122Z,2.12
2022-10-15T13:52:07.641Z,1.95
2022-10-15T13:55:15.360Z,2.20
2022-10-15T13:58:45.683Z,2.12
2022-10-15T14:01:51.272Z,1.85
2022-10-15T14:04:58.927Z,2.20
2022-10-15T14:08:09.713Z,2.58
2022-10-15T14:11:15.400Z,2.98
2022-10-15T14:14:43.755Z,3.80
2022-10-15T14:17:49.241Z,3.30
2022-10-15T14:20:59.842Z,2.98
2022-10-15T14:24:06.358Z,3.98
2022-10-15T14:27:19.030Z,4.42
2022-10-15T14:30:46.668Z,3.27
2022-10-15T14:37:00.529Z,2.67
2022-10-15T14:40:10.458Z,3.02
2022-10-15T14:43:32.081Z,3.02
2022-10-15T14:46:40.881Z,2.98
2022-10-15T14:49:48.348Z,3.15
2022-10-15T14:53:03.684Z,3.02
2022-10-15T14:56:14.621Z,2.80
2022-10-15T14:59:20.639Z,3.50
2022-10-15T15:02:30.588Z,3.35
2022-10-15T15:05:41.190Z,3.30
2022-10-15T15:08:46.604Z,2.90
2022-10-15T15:11:47.381Z,3.37
2022-10-15T15:14:42.741Z,3.65
2022-10-15T15:17:48.190Z,4.55
2022-10-15T15:20:57.847Z,3.52
2022-10-15T15:24:05.754Z,4.40
2022-10-15T15:27:13.709Z,4.03
2022-10-15T15:30:22.403Z,3.90
2022-10-15T15:33:31.979Z,3.83
2022-10-15T15:36:37.997Z,3.98
2022-10-15T15:39:45.514Z,4.03
2022-10-15T15:42:53.419Z,4.37
2022-10-15T15:46:01.091Z,3.65
2022-10-15T15:49:08.667Z,4.87
2022-10-15T15:52:15.549Z,5.17
2022-10-15T15:55:22.078Z,5.83
2022-10-15T15:58:29.259Z,7.45
2022-10-15T16:01:35.123Z,7.67
2022-10-15T16:04:42.134Z,8.03
2022-10-15T16:07:47.644Z,8.68
2022-10-15T16:10:55.310Z,9.00
2022-10-15T16:14:03.771Z,8.18
2022-10-15T16:17:09.499Z,9.30
2022-10-15T16:20:16.012Z,9.23
2022-10-15T16:23:22.641Z,9.05
2022-10-15T16:26:27.619Z,8.88
2022-10-15T16:29:34.058Z,9.25
2022-10-15T16:32:41.026Z,10.48
2022-10-15T16:35:47.618Z,11.63
2022-10-15T16:38:56.856Z,11.48
2022-10-15T16:42:02.701Z,13.38
2022-10-15T16:45:11.275Z,15.38
2022-10-15T16:48:16.491Z,15.58
2022-10-15T16:51:28.904Z,14.75
2022-10-15T16:54:33.253Z,15.35
2022-10-15T16:57:39.144Z,15.65
2022-10-15T17:00:43.943Z,16.27
2022-10-15T17:03:50.794Z,16.25
2022-10-15T17:06:57.632Z,17.00
2022-10-15T17:10:04.923Z,15.38
2022-10-15T17:13:12.328Z,15.70
2022-10-15T17:16:25.497Z,15.30
2022-10-15T17:19:35.570Z,17.27
2022-10-15T17:22:41.952Z,18.37
2022-10-15T17:25:48.389Z,20.35
2022-10-15T17:28:50.643Z,21.45
2022-10-15T17:31:38.722Z,22.67
2022-10-15T17:34:33.904Z,26.33
2022-10-15T17:37:20.337Z,25.50
2022-10-15T17:40:21.439Z,28.98
2022-10-15T17:43:27.778Z,39.70
2022-10-15T17:46:37.737Z,37.23
2022-10-15T17:49:44.702Z,38.90
2022-10-15T17:52:51.307Z,39.00
2022-10-15T17:55:57.455Z,35.83
2022-10-15T17:59:04.162Z,42.10
2022-10-15T18:02:10.711Z,37.17
2022-10-15T18:05:18.438Z,37.80
2022-10-15T18:08:24.694Z,35.70
2022-10-15T18:11:40.035Z,32.58
2022-10-15T18:14:45.974Z,32.48
2022-10-15T18:17:55.646Z,30.05
2022-10-15T18:21:01.183Z,31.80
2022-10-15T18:24:07.201Z,27.10
2022-10-15T18:27:14.013Z,27.87
2022-10-15T18:30:22.555Z,27.73
2022-10-15T18:33:28.111Z,29.18
2022-10-15T18:36:40.701Z,30.55
2022-10-15T18:39:46.731Z,32.05
2022-10-15T18:42:54.707Z,33.05
2022-10-15T18:46:01.864Z,32.95
2022-10-15T18:49:08.997Z,36.38
2022-10-15T18:52:21.876Z,33.58
2022-10-15T18:55:24.996Z,29.52
2022-10-15T18:58:31.442Z,27.10
2022-10-15T19:01:54.712Z,29.35
2022-10-15T19:05:02.839Z,28.57
2022-10-15T19:08:16.918Z,26.77
2022-10-15T19:11:21.504Z,25.60
2022-10-15T19:14:27.836Z,26.77
2022-10-15T19:17:29.316Z,26.73
2022-10-15T19:20:16.266Z,25.92
2022-10-15T19:23:10.989Z,26.90
2022-10-15T19:25:58.011Z,24.57
2022-10-15T19:28:54.070Z,26.50
2022-10-15T19:31:52.484Z,24.82
2022-10-15T19:35:00.187Z,26.10
2022-10-15T19:38:05.411Z,28.12
2022-10-15T19:41:11.275Z,27.20
2022-10-15T19:44:19.783Z,28.60
2022-10-15T19:47:29.046Z,27.22
2022-10-15T19:50:37.274Z,25.90
2022-10-15T19:53:44.790Z,26.02
2022-10-15T19:56:52.626Z,26.45
2022-10-15T19:59:58.217Z,24.80
2022-10-15T20:03:06.890Z,26.05
2022-10-15T20:06:14.595Z,23.87
2022-10-15T20:09:21.283Z,23.05
2022-10-15T20:12:26.220Z,24.30
2022-10-15T20:15:32.897Z,24.43
2022-10-15T20:18:39.978Z,25.12
2022-10-15T20:21:46.009Z,25.05
2022-10-15T20:24:51.283Z,25.25
2022-10-15T20:27:57.219Z,25.45
2022-10-15T20:31:03.585Z,25.48
2022-10-15T20:34:11.289Z,25.77
2022-10-15T20:37:19.172Z,27.07
2022-10-15T20:40:26.006Z,24.67
2022-10-15T20:43:33.396Z,26.12
2022-10-15T20:46:55.951Z,42.30
2022-10-15T20:50:04.870Z,25.50
2022-10-15T20:53:11.063Z,23.45
2022-10-15T20:56:17.180Z,24.12
2022-10-15T20:59:26.442Z,21.90
2022-10-15T21:02:32.503Z,23.52
2022-10-15T21:05:37.898Z,23.38
2022-10-15T21:08:45.466Z,23.85
2022-10-15T21:11:57.744Z,23.07
2022-10-15T21:15:05.279Z,22.07
2022-10-15T21:18:13.423Z,21.60
2022-10-15T21:21:21.077Z,21.93
2022-10-15T21:24:32.114Z,21.93
2022-10-15T21:27:39.320Z,22.77
2022-10-15T21:30:44.737Z,19.73
2022-10-15T21:33:50.491Z,21.73
2022-10-15T21:36:57.834Z,22.27
2022-10-15T21:40:05.928Z,20.55
2022-10-15T21:43:14.082Z,21.27
2022-10-15T21:46:22.191Z,21.82
2022-10-15T21:49:30.265Z,22.17
2022-10-15T21:52:37.551Z,19.10
2022-10-15T21:55:43.532Z,17.62
2022-10-15T21:58:49.951Z,17.30
2022-10-15T22:01:56.827Z,17.05
2022-10-15T22:05:03.424Z,18.15
2022-10-15T22:08:11.003Z,18.40
2022-10-15T22:11:39.616Z,19.12
2022-10-15T22:14:45.289Z,19.32
2022-10-15T22:17:51.804Z,20.70
2022-10-15T22:20:57.698Z,19.87
2022-10-15T22:24:06.844Z,23.73
2022-10-15T22:27:13.635Z,21.57
2022-10-15T22:30:21.007Z,20.85
2022-10-15T22:33:26.675Z,20.55
2022-10-15T22:36:36.597Z,20.60
2022-10-15T22:39:43.023Z,19.87
2022-10-15T22:42:49.892Z,20.20
2022-10-15T22:45:57.803Z,18.70
2022-10-15T22:49:04.017Z,19.25
2022-10-15T22:52:09.845Z,17.50
2022-10-15T22:55:15.939Z,17.80
2022-10-15T22:58:20.749Z,17.62
2022-10-15T23:01:39.243Z,18.45
2022-10-15T23:04:44.992Z,17.35
2022-10-15T23:07:50.641Z,16.35
2022-10-15T23:10:58.040Z,16.42
2022-10-15T23:14:05.278Z,16.97
2022-10-15T23:17:12.701Z,16.70
2022-10-15T23:20:19.812Z,17.30
2022-10-15T23:23:24.907Z,18.20
2022-10-15T23:26:31.919Z,16.65
2022-10-15T23:29:40.377Z,16.82
2022-10-15T23:32:46.174Z,15.98
2022-10-15T23:35:52.051Z,15.00
2022-10-15T23:39:06.489Z,16.25
2022-10-15T23:42:13.007Z,15.80
2022-10-15T23:45:21.054Z,16.10
2022-10-15T23:48:27.578Z,15.63
2022-10-15T23:51:44.882Z,14.83
2022-10-15T23:54:51.103Z,14.68
2022-10-15T23:57:57.188Z,14.75
